Time;durP1;ratioP1;P1;durP2;ratioP2;P2;SDS_P1;SDS_P2;PMS_P1;PMS_P2;Temp;Humidity;BMP_temperature;BMP_pressure;BME280_temperature;BME280_humidity;BME280_pressure;Samples;Min_cycle;Max_cycle;Signal;HPM_P1;HPM_P2
2022/09/20 00:01:20;;;;;;;5.23;3.40;;;9.40;99.90;;;;;;5109723;28;20295;-53
2022/09/20 00:03:51;;;;;;;7.87;3.50;;;9.40;99.90;;;;;;5109763;28;20571;-53
2022/09/20 00:06:21;;;;;;;6.37;3.40;;;9.40;99.90;;;;;;5110720;28;20299;-53
2022/09/20 00:08:50;;;;;;;4.90;3.10;;;9.50;99.90;;;;;;5110396;28;20235;-53
2022/09/20 00:11:21;;;;;;;5.27;3.17;;;9.50;99.90;;;;;;5103889;28;20683;-53
2022/09/20 00:13:51;;;;;;;6.00;3.43;;;9.50;99.90;;;;;;5109387;28;20242;-53
2022/09/20 00:16:21;;;;;;;8.13;3.03;;;9.60;99.90;;;;;;5110657;28;20196;-53
2022/09/20 00:18:52;;;;;;;5.77;3.67;;;9.60;99.90;;;;;;5109919;28;20938;-53
2022/09/20 00:21:22;;;;;;;6.37;3.50;;;9.50;99.90;;;;;;5107497;28;20216;-53
2022/09/20 00:23:51;;;;;;;5.93;3.43;;;9.50;99.90;;;;;;5110147;28;20208;-53
2022/09/20 00:26:20;;;;;;;5.13;3.43;;;9.50;99.90;;;;;;5110161;28;20207;-53
2022/09/20 00:28:48;;;;;;;5.63;3.27;;;9.40;99.90;;;;;;5109774;28;20254;-53
2022/09/20 00:31:16;;;;;;;5.37;3.80;;;9.40;99.90;;;;;;5110407;28;20210;-52
2022/09/20 00:36:31;;;;;;;5.93;4.63;;;9.40;99.90;;;;;;5109552;28;20826;-53
2022/09/20 00:39:01;;;;;;;5.93;3.90;;;9.30;99.90;;;;;;5110107;28;20224;-53
2022/09/20 00:41:31;;;;;;;6.40;3.63;;;9.30;99.90;;;;;;5110019;28;20729;-52
2022/09/20 00:44:00;;;;;;;6.90;3.43;;;9.30;99.90;;;;;;5109119;28;20239;-53
2022/09/20 00:46:34;;;;;;;5.80;3.67;;;9.20;99.90;;;;;;5110265;28;20207;-53
2022/09/20 00:49:10;;;;;;;4.33;3.23;;;9.10;99.90;;;;;;5109254;28;20228;-53
2022/09/20 00:51:43;;;;;;;5.67;3.47;;;9.10;99.90;;;;;;5109503;28;20199;-53
2022/09/20 00:54:15;;;;;;;8.03;3.10;;;9.00;99.90;;;;;;5109996;28;20253;-53
2022/09/20 00:56:48;;;;;;;6.80;3.30;;;9.00;99.90;;;;;;5109411;28;20256;-53
2022/09/20 00:59:19;;;;;;;3.77;3.07;;;8.90;99.90;;;;;;5109375;28;20650;-53
2022/09/20 01:01:51;;;;;;;3.53;3.13;;;8.90;99.90;;;;;;5109505;28;20223;-52
2022/09/20 01:04:22;;;;;;;6.13;2.87;;;8.80;99.90;;;;;;5110029;28;20211;-53
2022/09/20 01:06:54;;;;;;;6.43;3.40;;;8.80;99.90;;;;;;5109857;28;20230;-53
2022/09/20 01:09:22;;;;;;;6.67;3.33;;;8.70;99.90;;;;;;5100516;28;20223;-53
2022/09/20 01:11:51;;;;;;;8.00;4.33;;;8.70;99.90;;;;;;5109082;28;20303;-53
2022/09/20 01:14:21;;;;;;;7.53;3.70;;;8.70;99.90;;;;;;5105121;28;20307;-53
2022/09/20 01:16:49;;;;;;;10.57;4.20;;;8.60;99.90;;;;;;5099873;28;20298;-53
2022/09/20 01:19:27;;;;;;;5.97;3.60;;;8.60;99.90;;;;;;5109690;28;20223;-53
2022/09/20 01:21:57;;;;;;;6.83;3.77;;;8.50;99.90;;;;;;5108445;28;20237;-53
2022/09/20 01:24:30;;;;;;;8.17;3.57;;;8.50;99.90;;;;;;5109412;28;20302;-52
2022/09/20 01:27:10;;;;;;;7.63;3.90;;;8.50;99.90;;;;;;5109219;28;20224;-53
2022/09/20 01:30:01;;;;;;;4.40;3.70;;;8.50;99.90;;;;;;5112963;28;20319;-53
2022/09/20 01:32:41;;;;;;;5.90;3.60;;;8.40;99.90;;;;;;5108823;28;20234;-53
2022/09/20 01:35:10;;;;;;;6.83;4.20;;;8.40;99.90;;;;;;5101047;28;20292;-53
2022/09/20 01:37:50;;;;;;;6.13;3.97;;;8.40;99.90;;;;;;5113431;28;20225;-52
2022/09/20 01:40:25;;;;;;;7.90;3.87;;;8.30;99.90;;;;;;5112790;28;20321;-53
2022/09/20 01:43:02;;;;;;;7.67;3.90;;;8.30;99.90;;;;;;5112743;28;20203;-52
2022/09/20 01:45:32;;;;;;;9.00;4.07;;;8.20;99.90;;;;;;5112634;28;20238;-53
2022/09/20 01:48:09;;;;;;;6.27;4.10;;;8.20;99.90;;;;;;5112678;28;20231;-52
2022/09/20 01:50:50;;;;;;;7.87;4.03;;;8.10;99.90;;;;;;5112829;28;20972;-52
2022/09/20 01:53:53;;;;;;;9.53;3.67;;;8.10;99.90;;;;;;5112923;28;20310;-52
2022/09/20 01:56:44;;;;;;;8.33;4.30;;;8.00;99.90;;;;;;5112047;28;20199;-52
2022/09/20 01:59:55;;;;;;;5.70;3.77;;;8.00;99.90;;;;;;5096189;28;20317;-52
2022/09/20 02:02:59;;;;;;;7.70;4.13;;;7.90;99.90;;;;;;5109572;28;20306;-52
2022/09/20 02:05:56;;;;;;;8.00;4.30;;;7.90;99.90;;;;;;5094582;28;20214;-53
2022/09/20 02:08:51;;;;;;;5.60;4.17;;;7.80;99.90;;;;;;5070738;28;20211;-52
2022/09/20 02:11:21;;;;;;;6.33;3.80;;;7.80;99.90;;;;;;5110968;28;20203;-53
2022/09/20 02:14:04;;;;;;;5.80;4.20;;;7.70;99.90;;;;;;5111172;28;20282;-53
2022/09/20 02:16:48;;;;;;;7.37;4.00;;;7.70;99.90;;;;;;5112630;28;20196;-52
2022/09/20 02:19:32;;;;;;;9.73;4.20;;;7.70;99.90;;;;;;5112639;28;20257;-53
2022/09/20 02:22:21;;;;;;;8.70;4.07;;;7.70;99.90;;;;;;5111913;28;20294;-53
2022/09/20 02:25:04;;;;;;;7.63;4.00;;;7.60;99.90;;;;;;5112760;28;20222;-53
2022/09/20 02:27:40;;;;;;;8.00;3.67;;;7.60;99.90;;;;;;5112945;28;20202;-53
2022/09/20 02:30:18;;;;;;;6.87;3.47;;;7.60;99.90;;;;;;5112644;28;20219;-53
2022/09/20 02:33:23;;;;;;;5.73;3.90;;;7.60;99.90;;;;;;5109828;28;20232;-52
2022/09/20 02:36:12;;;;;;;7.73;3.57;;;7.60;99.90;;;;;;5088368;28;20674;-53
2022/09/20 02:38:57;;;;;;;11.57;3.97;;;7.60;99.90;;;;;;5112406;28;20354;-53
2022/09/20 02:41:51;;;;;;;5.90;3.60;;;7.50;99.90;;;;;;5111603;28;20276;-53
2022/09/20 02:44:29;;;;;;;3.87;3.30;;;7.50;99.90;;;;;;5111870;28;20683;-53
2022/09/20 02:47:06;;;;;;;4.40;3.47;;;7.40;99.90;;;;;;5111164;28;20211;-53
2022/09/20 02:49:45;;;;;;;5.83;3.50;;;7.40;99.90;;;;;;5111595;28;20608;-53
2022/09/20 02:52:22;;;;;;;7.07;3.40;;;7.40;99.90;;;;;;5111355;28;20409;-53
2022/09/20 02:54:59;;;;;;;7.47;3.57;;;7.30;99.90;;;;;;5111642;28;20199;-53
2022/09/20 02:57:45;;;;;;;5.17;3.23;;;7.20;99.90;;;;;;5102993;28;20679;-53
2022/09/20 03:00:18;;;;;;;9.00;3.70;;;7.20;99.90;;;;;;5111319;28;20237;-53
2022/09/20 03:02:57;;;;;;;8.53;3.73;;;7.20;99.90;;;;;;5111432;28;20222;-53
2022/09/20 03:05:31;;;;;;;7.17;3.03;;;7.20;99.90;;;;;;5111387;28;20313;-52
2022/09/20 03:08:23;;;;;;;7.03;3.50;;;7.20;99.90;;;;;;5111330;28;20211;-53
2022/09/20 03:11:01;;;;;;;6.27;3.77;;;7.20;99.90;;;;;;5111460;28;20226;-53
2022/09/20 03:13:46;;;;;;;9.23;4.33;;;7.10;99.90;;;;;;5110752;28;20234;-52
2022/09/20 03:16:25;;;;;;;10.30;4.17;;;7.10;99.90;;;;;;5111403;28;20289;-52
2022/09/20 03:19:02;;;;;;;9.80;3.87;;;7.10;99.90;;;;;;5110930;28;20267;-52
2022/09/20 03:21:47;;;;;;;6.63;4.13;;;7.10;99.90;;;;;;5110918;28;20329;-53
2022/09/20 03:24:28;;;;;;;7.97;4.13;;;7.10;99.90;;;;;;5110954;28;20869;-52
2022/09/20 03:27:07;;;;;;;9.60;4.23;;;7.10;99.90;;;;;;5096650;28;20249;-53
2022/09/20 03:29:48;;;;;;;9.53;4.30;;;7.10;99.90;;;;;;5111026;28;20378;-53
2022/09/20 03:32:33;;;;;;;8.27;4.00;;;7.10;99.90;;;;;;5109183;28;20207;-53
2022/09/20 03:35:19;;;;;;;8.63;4.47;;;7.10;99.90;;;;;;5106856;28;20236;-52
2022/09/20 03:38:10;;;;;;;7.47;4.30;;;7.10;99.90;;;;;;5110936;28;20272;-53
2022/09/20 03:41:19;;;;;;;7.67;4.17;;;7.20;99.90;;;;;;5110942;28;20238;-53
2022/09/20 03:44:10;;;;;;;10.10;3.83;;;7.20;99.90;;;;;;5109894;28;20206;-53
2022/09/20 03:46:45;;;;;;;12.43;4.30;;;7.20;99.90;;;;;;5110539;28;20292;-53
2022/09/20 03:49:57;;;;;;;10.97;4.20;;;7.30;99.90;;;;;;5110986;28;20232;-52
2022/09/20 03:52:44;;;;;;;14.10;4.90;;;7.40;99.90;;;;;;5069036;28;20293;-52
2022/09/20 03:55:54;;;;;;;8.63;4.20;;;7.50;99.90;;;;;;5110350;28;20212;-53
2022/09/20 03:58:35;;;;;;;9.43;3.90;;;7.50;99.90;;;;;;5040389;28;20291;-53
2022/09/20 04:01:28;;;;;;;9.93;3.90;;;7.50;99.90;;;;;;5110292;28;20211;-52
2022/09/20 04:04:06;;;;;;;9.17;3.83;;;7.50;99.90;;;;;;5109730;28;20223;-52
2022/09/20 04:06:51;;;;;;;9.17;4.07;;;7.40;99.90;;;;;;5110665;28;20267;-53
2022/09/20 04:09:38;;;;;;;8.60;3.77;;;7.40;99.90;;;;;;5110063;28;20731;-53
2022/09/20 04:12:12;;;;;;;9.57;4.47;;;7.40;99.90;;;;;;5110177;28;20206;-52
2022/09/20 04:14:48;;;;;;;8.23;4.00;;;7.40;99.90;;;;;;5110138;28;20235;-52
2022/09/20 04:17:31;;;;;;;8.07;4.33;;;7.40;99.90;;;;;;5094555;28;20234;-53
2022/09/20 04:20:06;;;;;;;9.10;4.50;;;7.30;99.90;;;;;;5088817;28;20310;-53
2022/09/20 04:22:34;;;;;;;6.67;3.73;;;7.20;99.90;;;;;;5086300;28;20710;-52
2022/09/20 04:25:13;;;;;;;7.23;3.40;;;7.20;99.90;;;;;;5089372;28;20282;-52
2022/09/20 04:27:45;;;;;;;8.70;4.20;;;7.20;99.90;;;;;;5089482;28;20291;-52
2022/09/20 04:30:19;;;;;;;7.80;3.60;;;7.10;99.90;;;;;;5089180;28;20373;-52
2022/09/20 04:32:55;;;;;;;12.27;3.77;;;7.00;99.90;;;;;;5086354;28;20267;-53
2022/09/20 04:38:21;;;;;;;8.40;4.17;;;7.00;99.90;;;;;;5087376;28;20237;-52
2022/09/20 04:41:08;;;;;;;7.10;4.17;;;7.00;99.90;;;;;;5088403;28;20238;-52
2022/09/20 04:44:16;;;;;;;13.03;4.37;;;7.00;99.90;;;;;;5088160;28;20204;-53
2022/09/20 04:47:19;;;;;;;7.83;4.13;;;7.00;99.90;;;;;;5089362;28;20344;-53
2022/09/20 04:50:17;;;;;;;10.70;4.07;;;7.00;99.90;;;;;;5089224;28;20716;-52
2022/09/20 04:53:21;;;;;;;8.67;4.30;;;7.10;99.90;;;;;;5085787;28;20680;-53
2022/09/20 04:55:54;;;;;;;8.70;4.03;;;7.10;99.90;;;;;;5088466;28;20199;-53
2022/09/20 04:58:46;;;;;;;9.47;3.83;;;7.10;99.90;;;;;;5088899;28;20218;-53
2022/09/20 05:01:57;;;;;;;10.17;4.17;;;7.10;99.90;;;;;;5088060;28;20241;-52
2022/09/20 05:05:14;;;;;;;8.30;4.33;;;7.20;99.90;;;;;;5091661;28;20218;-52
2022/09/20 05:11:46;;;;;;;9.87;4.67;;;7.30;99.90;;;;;;5069027;28;20561;-51
2022/09/20 05:14:34;;;;;;;8.73;4.30;;;7.40;99.90;;;;;;5056000;28;20203;-51
2022/09/20 05:17:30;;;;;;;13.77;5.40;;;7.50;99.90;;;;;;5066231;28;20292;-51
2022/09/20 05:20:21;;;;;;;10.30;5.50;;;7.50;99.90;;;;;;5066216;28;20235;-51
2022/09/20 05:23:22;;;;;;;9.20;5.77;;;7.50;99.90;;;;;;5065827;28;20208;-51
2022/09/20 05:26:09;;;;;;;10.90;5.53;;;7.50;99.90;;;;;;5066558;28;20204;-51
2022/09/20 05:28:49;;;;;;;8.90;5.07;;;7.60;99.90;;;;;;5065936;28;20222;-52
2022/09/20 05:31:27;;;;;;;9.50;5.80;;;7.60;99.90;;;;;;5066537;28;20207;-50
2022/09/20 05:34:04;;;;;;;14.77;5.87;;;7.70;99.90;;;;;;5064568;28;20203;-50
2022/09/20 05:36:47;;;;;;;11.30;6.33;;;7.80;99.90;;;;;;5066169;28;20300;-49
2022/09/20 05:39:28;;;;;;;8.43;5.57;;;7.80;99.90;;;;;;5066430;28;20221;-51
2022/09/20 05:41:59;;;;;;;10.23;6.33;;;7.80;99.90;;;;;;5065580;28;20657;-51
2022/09/20 05:44:41;;;;;;;15.50;6.63;;;7.90;99.90;;;;;;5065642;28;20291;-52
2022/09/20 05:47:18;;;;;;;13.47;6.97;;;7.90;99.90;;;;;;5066278;28;20347;-52
2022/09/20 05:49:59;;;;;;;10.93;6.37;;;7.90;99.90;;;;;;5066122;28;20255;-52
2022/09/20 05:52:38;;;;;;;14.27;7.50;;;8.00;99.90;;;;;;5065547;28;20726;-51
2022/09/20 05:55:28;;;;;;;14.80;6.87;;;8.00;99.90;;;;;;5065991;28;20293;-51
2022/09/20 05:58:11;;;;;;;14.20;8.57;;;8.10;99.90;;;;;;5053914;28;20291;-51
2022/09/20 06:00:44;;;;;;;13.80;8.03;;;8.30;99.90;;;;;;5065504;28;20734;-51
2022/09/20 06:03:23;;;;;;;13.83;9.30;;;8.30;99.90;;;;;;5065432;28;20220;-51
2022/09/20 06:06:00;;;;;;;15.33;9.00;;;8.30;99.90;;;;;;5065681;28;20300;-51
2022/09/20 06:08:51;;;;;;;18.77;11.77;;;8.30;99.90;;;;;;5065501;28;20668;-52
2022/09/20 06:11:46;;;;;;;11.30;7.00;;;8.30;99.90;;;;;;5063293;28;21032;-51
2022/09/20 06:14:27;;;;;;;10.30;5.80;;;8.30;99.90;;;;;;5065529;28;20248;-51
2022/09/20 06:17:05;;;;;;;11.23;6.23;;;8.20;99.90;;;;;;5065547;28;20211;-51
2022/09/20 06:19:39;;;;;;;11.63;6.30;;;8.30;99.90;;;;;;5065116;28;20307;-51
2022/09/20 06:22:14;;;;;;;12.63;6.40;;;8.30;99.90;;;;;;5053525;28;20652;-51
2022/09/20 06:24:47;;;;;;;9.70;5.90;;;8.30;99.90;;;;;;5052164;28;20201;-51
2022/09/20 06:27:20;;;;;;;9.10;5.77;;;8.40;99.90;;;;;;5052260;28;20210;-51
2022/09/20 06:29:54;;;;;;;6.80;5.50;;;8.40;99.90;;;;;;5051909;28;20649;-50
2022/09/20 06:32:24;;;;;;;8.77;5.70;;;8.50;99.90;;;;;;5051626;28;20221;-51
2022/09/20 06:34:53;;;;;;;15.37;7.07;;;8.60;99.90;;;;;;5051606;28;20213;-51
2022/09/20 06:43:23;;;;;;;7.70;5.40;;;8.70;99.90;;;;;;5051325;28;20207;-53
2022/09/20 06:45:51;;;;;;;6.23;5.57;;;8.80;99.90;;;;;;5051802;28;20710;-51
2022/09/20 06:48:21;;;;;;;10.13;5.97;;;8.80;99.90;;;;;;5051371;28;20213;-50
2022/09/20 06:50:51;;;;;;;9.27;5.90;;;8.80;99.90;;;;;;5051450;28;20325;-51
2022/09/20 06:53:29;;;;;;;9.90;5.60;;;8.80;99.90;;;;;;5051209;28;20326;-50
2022/09/20 06:55:57;;;;;;;8.30;5.67;;;9.10;99.90;;;;;;5051808;28;20296;-50
2022/09/20 06:58:27;;;;;;;7.90;5.77;;;9.60;99.90;;;;;;5047080;28;20304;-51
2022/09/20 07:00:55;;;;;;;7.60;5.13;;;10.00;99.90;;;;;;5051210;28;20651;-51
2022/09/20 07:03:24;;;;;;;6.23;4.77;;;10.10;99.90;;;;;;5050734;28;20205;-51
2022/09/20 07:05:52;;;;;;;6.90;5.00;;;10.40;99.90;;;;;;5051031;28;20300;-51
2022/09/20 07:08:20;;;;;;;7.03;5.30;;;10.30;99.90;;;;;;5051260;28;20206;-51
2022/09/20 07:10:49;;;;;;;10.20;5.30;;;10.60;99.90;;;;;;5050953;28;20221;-52
2022/09/20 07:13:19;;;;;;;10.93;4.97;;;10.90;99.90;;;;;;5050089;28;20304;-51
2022/09/20 07:15:47;;;;;;;9.57;5.13;;;10.90;99.90;;;;;;5051258;28;20260;-51
2022/09/20 07:18:15;;;;;;;7.30;4.93;;;11.20;99.90;;;;;;5050893;28;20646;-52
2022/09/20 07:20:45;;;;;;;7.57;4.60;;;11.30;99.90;;;;;;5050964;28;20667;-51
2022/09/20 07:23:14;;;;;;;9.47;5.00;;;11.20;99.90;;;;;;5050528;28;20301;-52
2022/09/20 07:25:42;;;;;;;5.17;3.80;;;11.10;99.90;;;;;;5051192;28;20292;-51
2022/09/20 07:28:10;;;;;;;7.43;4.43;;;11.00;99.90;;;;;;5050640;28;20224;-51
2022/09/20 07:30:38;;;;;;;8.87;4.77;;;11.20;99.90;;;;;;5050970;28;20229;-51
2022/09/20 07:33:08;;;;;;;9.17;4.50;;;11.20;99.90;;;;;;5048114;28;20213;-51
2022/09/20 07:35:36;;;;;;;8.77;4.63;;;11.30;99.90;;;;;;5037584;28;20232;-51
2022/09/20 07:38:06;;;;;;;7.10;4.67;;;11.40;99.90;;;;;;5050831;28;20228;-52
2022/09/20 07:40:34;;;;;;;7.23;4.43;;;11.40;99.90;;;;;;5050562;28;20325;-51
2022/09/20 07:43:02;;;;;;;8.07;4.80;;;11.30;99.90;;;;;;5050211;28;20708;-52
2022/09/20 07:45:30;;;;;;;6.70;5.03;;;11.60;99.90;;;;;;5050165;28;20212;-50
2022/09/20 07:47:58;;;;;;;8.90;4.80;;;11.80;99.90;;;;;;5047513;28;20209;-52
2022/09/20 07:50:26;;;;;;;5.50;3.93;;;12.10;99.90;;;;;;5050332;28;20230;-51
2022/09/20 07:52:56;;;;;;;8.03;5.23;;;12.30;99.90;;;;;;5050003;28;20369;-51
2022/09/20 07:55:26;;;;;;;5.67;3.83;;;12.40;99.90;;;;;;5050498;28;20296;-52
2022/09/20 07:57:54;;;;;;;7.03;4.33;;;12.30;99.90;;;;;;5050381;28;20321;-52
2022/09/20 08:00:22;;;;;;;7.47;4.80;;;12.30;99.90;;;;;;5050174;28;20233;-52
2022/09/20 08:02:59;;;;;;;6.57;4.73;;;12.50;99.90;;;;;;5049637;28;20315;-51
2022/09/20 08:05:27;;;;;;;9.83;4.23;;;12.60;99.90;;;;;;5049934;28;20241;-52
2022/09/20 08:07:55;;;;;;;9.83;4.43;;;12.60;99.90;;;;;;5036283;28;20210;-51
2022/09/20 08:10:24;;;;;;;9.70;5.00;;;12.60;99.90;;;;;;5049832;28;20320;-52
2022/09/20 08:12:53;;;;;;;8.43;4.57;;;12.50;99.90;;;;;;5049336;28;20297;-52
2022/09/20 08:15:41;;;;;;;9.17;4.53;;;12.30;99.90;;;;;;5049626;28;20205;-52
2022/09/20 08:18:10;;;;;;;9.07;4.20;;;12.20;99.90;;;;;;5049635;28;20668;-51
2022/09/20 08:20:39;;;;;;;10.27;4.17;;;12.20;99.90;;;;;;5050166;28;20197;-50
2022/09/20 08:23:08;;;;;;;6.67;3.63;;;12.20;99.90;;;;;;5049273;28;20304;-51
2022/09/20 08:25:50;;;;;;;6.07;3.63;;;12.20;99.90;;;;;;5049688;28;20690;-51
2022/09/20 08:28:20;;;;;;;7.13;4.10;;;12.20;99.90;;;;;;5049663;28;20292;-51
2022/09/20 08:30:48;;;;;;;10.07;3.70;;;12.20;99.90;;;;;;5049830;28;20232;-51
2022/09/20 08:33:16;;;;;;;8.07;3.97;;;12.00;99.90;;;;;;5047801;28;20202;-51
2022/09/20 08:35:44;;;;;;;7.90;3.60;;;12.00;99.90;;;;;;5049807;28;20216;-51
2022/09/20 08:38:12;;;;;;;7.83;3.63;;;12.00;99.90;;;;;;5049813;28;20329;-51
2022/09/20 08:41:04;;;;;;;10.17;3.60;;;11.90;99.90;;;;;;5049561;28;20214;-51
2022/09/20 08:43:37;;;;;;;11.33;4.10;;;12.10;99.90;;;;;;5048646;28;20297;-51
2022/09/20 08:46:09;;;;;;;6.53;3.50;;;12.20;99.90;;;;;;5049379;28;20210;-52
2022/09/20 08:48:37;;;;;;;8.50;3.23;;;12.40;99.90;;;;;;5049395;28;20229;-51
2022/09/20 08:51:06;;;;;;;7.97;3.43;;;12.50;99.90;;;;;;5049233;28;20725;-52
2022/09/20 08:53:34;;;;;;;9.60;3.90;;;12.60;99.90;;;;;;5049008;28;20301;-52
2022/09/20 08:56:03;;;;;;;6.97;3.70;;;12.70;99.90;;;;;;5049309;28;20689;-52
2022/09/20 08:58:31;;;;;;;7.63;4.03;;;12.80;99.90;;;;;;5049374;28;20228;-52
2022/09/20 09:01:01;;;;;;;9.50;4.30;;;12.90;99.90;;;;;;5049213;28;20293;-52
2022/09/20 09:03:29;;;;;;;8.77;3.80;;;12.90;99.90;;;;;;5048109;28;20206;-52
2022/09/20 09:05:58;;;;;;;7.10;4.37;;;12.80;99.90;;;;;;5048418;28;20206;-52
2022/09/20 09:08:29;;;;;;;8.80;4.00;;;12.60;99.90;;;;;;5048965;28;20213;-52
2022/09/20 09:11:07;;;;;;;9.93;4.10;;;12.50;99.90;;;;;;5048854;28;20222;-52
2022/09/20 09:13:42;;;;;;;9.27;4.33;;;12.50;99.90;;;;;;5048700;28;20299;-52
2022/09/20 09:16:15;;;;;;;7.53;4.67;;;12.50;99.90;;;;;;5044862;28;20233;-51
2022/09/20 09:18:52;;;;;;;7.97;4.03;;;12.40;99.90;;;;;;5049133;28;20217;-52
2022/09/20 09:21:22;;;;;;;14.73;4.47;;;12.40;99.90;;;;;;5049160;28;20292;-51
2022/09/20 09:23:53;;;;;;;12.13;4.30;;;12.40;99.90;;;;;;5049065;28;20288;-51
2022/09/20 09:26:23;;;;;;;9.33;4.30;;;12.50;99.90;;;;;;5048709;28;20744;-52
2022/09/20 09:29:16;;;;;;;9.27;3.53;;;12.50;99.90;;;;;;5049293;28;20257;-52
2022/09/20 09:31:47;;;;;;;10.23;3.60;;;12.50;99.90;;;;;;5048614;28;20416;-51
2022/09/20 09:34:24;;;;;;;6.63;3.73;;;12.50;99.90;;;;;;5049201;28;20216;-51
2022/09/20 09:36:54;;;;;;;8.73;3.60;;;12.60;99.90;;;;;;5048970;28;20666;-51
2022/09/20 09:39:25;;;;;;;8.27;3.60;;;12.60;99.90;;;;;;5049127;28;20313;-52
2022/09/20 09:41:54;;;;;;;7.60;3.90;;;12.70;99.90;;;;;;5047901;28;20197;-52
2022/09/20 09:44:24;;;;;;;9.70;3.70;;;12.80;99.90;;;;;;5048784;28;20653;-52
2022/09/20 09:46:54;;;;;;;7.77;4.03;;;12.90;99.90;;;;;;5048807;28;20629;-51
2022/09/20 09:49:24;;;;;;;7.87;3.57;;;13.10;99.90;;;;;;5048680;28;20317;-51
2022/09/20 09:52:13;;;;;;;7.63;3.57;;;13.20;99.90;;;;;;5048631;28;20304;-52
2022/09/20 09:54:47;;;;;;;8.80;3.70;;;13.30;99.90;;;;;;5048795;28;20884;-52
2022/09/20 09:57:38;;;;;;;19.20;8.83;;;13.30;99.90;;;;;;5040157;28;20296;-52
2022/09/20 10:00:11;;;;;;;29.87;12.40;;;13.40;99.90;;;;;;5052760;28;20316;-51
2022/09/20 10:03:14;;;;;;;25.07;10.70;;;13.50;99.90;;;;;;5051773;28;20674;-51
2022/09/20 10:05:57;;;;;;;13.83;5.77;;;13.80;99.90;;;;;;5052342;28;20233;-52
2022/09/20 10:08:34;;;;;;;13.50;5.63;;;14.00;99.90;;;;;;5052536;28;20666;-52
2022/09/20 10:11:13;;;;;;;14.77;5.27;;;14.10;99.90;;;;;;5052174;28;20266;-51
2022/09/20 10:13:51;;;;;;;9.40;2.70;;;14.20;99.90;;;;;;5051572;28;21075;-52
2022/09/20 10:16:31;;;;;;;6.60;2.30;;;14.30;99.90;;;;;;5052416;28;20227;-52
2022/09/20 10:19:09;;;;;;;9.73;2.60;;;14.40;99.90;;;;;;5051760;28;20225;-52
2022/09/20 10:21:49;;;;;;;6.33;2.30;;;14.40;99.90;;;;;;5051225;28;20209;-52
2022/09/20 10:24:30;;;;;;;8.47;2.80;;;14.40;99.90;;;;;;5052238;28;20300;-51
2022/09/20 10:27:20;;;;;;;7.57;2.27;;;14.50;99.90;;;;;;5051551;28;20743;-51
2022/09/20 10:29:59;;;;;;;7.57;2.40;;;14.60;99.90;;;;;;5051880;28;20275;-51
2022/09/20 10:32:44;;;;;;;8.87;2.07;;;14.70;99.90;;;;;;5050344;28;20214;-52
2022/09/20 10:35:23;;;;;;;6.03;2.20;;;14.90;99.90;;;;;;5049071;28;20206;-51
2022/09/20 10:38:06;;;;;;;10.37;1.90;;;14.60;99.90;;;;;;5051815;28;20210;-52
2022/09/20 10:43:39;;;;;;;6.30;2.00;;;14.10;99.90;;;;;;5051014;28;20216;-52
2022/09/20 10:46:15;;;;;;;3.60;1.70;;;14.00;99.90;;;;;;5050800;28;20642;-53
2022/09/20 10:49:13;;;;;;;5.50;2.40;;;14.00;99.90;;;;;;5050168;28;20751;-52
2022/09/20 10:51:54;;;;;;;3.87;1.57;;;14.10;99.90;;;;;;5051164;28;20745;-52
2022/09/20 10:54:37;;;;;;;9.63;2.00;;;14.10;99.90;;;;;;5051209;28;20208;-52
2022/09/20 10:57:24;;;;;;;6.10;2.33;;;14.00;99.90;;;;;;5046441;28;20647;-52
2022/09/20 11:00:03;;;;;;;8.07;2.30;;;14.00;99.90;;;;;;5051139;28;20921;-52
2022/09/20 11:02:53;;;;;;;7.70;2.33;;;14.10;99.90;;;;;;5045832;28;20293;-52
2022/09/20 11:05:36;;;;;;;8.90;2.00;;;14.10;99.90;;;;;;5050934;28;20248;-51
2022/09/20 11:08:12;;;;;;;5.87;2.23;;;14.30;99.90;;;;;;5051378;28;20205;-51
2022/09/20 11:10:45;;;;;;;5.50;2.30;;;14.50;99.90;;;;;;5045186;28;20663;-51
2022/09/20 11:13:22;;;;;;;9.77;2.23;;;14.90;99.90;;;;;;5049793;28;20615;-52
2022/09/20 11:15:58;;;;;;;8.07;2.00;;;15.30;99.90;;;;;;5050015;28;20213;-52
2022/09/20 11:18:32;;;;;;;7.07;1.80;;;15.40;99.90;;;;;;5050054;28;20228;-52
2022/09/20 11:21:06;;;;;;;8.50;1.92;;;15.40;99.90;;;;;;5050084;28;20205;-52
2022/09/20 11:23:44;;;;;;;7.53;1.87;;;15.10;99.90;;;;;;5049573;28;20292;-52
2022/09/20 11:26:21;;;;;;;5.27;1.50;;;14.90;99.90;;;;;;5049449;28;20292;-52
2022/09/20 11:28:54;;;;;;;5.87;1.80;;;15.00;99.90;;;;;;5049608;28;20308;-52
2022/09/20 11:31:26;;;;;;;3.67;1.60;;;14.90;99.90;;;;;;5046754;28;20225;-51
2022/09/20 11:34:00;;;;;;;2.63;1.60;;;14.80;99.90;;;;;;5047995;28;20602;-52
2022/09/20 11:36:37;;;;;;;4.50;1.60;;;14.60;99.90;;;;;;5050161;28;20284;-53
2022/09/20 11:39:14;;;;;;;5.43;1.73;;;14.40;99.90;;;;;;5049544;28;20334;-52
2022/09/20 11:41:43;;;;;;;5.23;1.90;;;14.40;99.90;;;;;;5048231;28;20204;-52
2022/09/20 11:44:14;;;;;;;7.30;2.30;;;14.30;99.90;;;;;;5054709;28;20242;-52
2022/09/20 11:46:49;;;;;;;7.40;1.97;;;14.20;99.90;;;;;;5061710;28;20208;-51
2022/09/20 11:49:22;;;;;;;7.40;2.07;;;14.20;99.90;;;;;;5049143;28;20315;-51
2022/09/20 11:52:27;;;;;;;5.57;1.90;;;14.10;99.90;;;;;;5049555;28;20846;-51
2022/09/20 11:55:29;;;;;;;6.23;1.80;;;14.30;99.90;;;;;;5038367;28;20204;-51
2022/09/20 11:58:02;;;;;;;6.70;1.97;;;14.50;99.90;;;;;;5049793;28;20236;-52
2022/09/20 12:00:34;;;;;;;7.30;1.80;;;14.70;99.90;;;;;;5049538;28;20320;-52
2022/09/20 12:03:05;;;;;;;6.30;2.17;;;15.20;99.90;;;;;;5049114;28;20225;-52
2022/09/20 12:05:37;;;;;;;8.57;2.03;;;15.40;99.90;;;;;;5043756;28;20262;-52
2022/09/20 12:08:08;;;;;;;5.10;1.73;;;15.50;99.90;;;;;;5049063;28;20292;-52
2022/09/20 12:10:39;;;;;;;4.38;1.40;;;15.70;99.90;;;;;;5049655;28;20355;-52
2022/09/20 12:13:20;;;;;;;9.43;1.80;;;15.70;99.90;;;;;;5049176;28;20665;-52
2022/09/20 12:15:59;;;;;;;4.75;1.48;;;15.90;99.90;;;;;;5049900;28;20288;-52
2022/09/20 12:18:31;;;;;;;4.50;1.65;;;16.20;99.90;;;;;;5048504;28;20279;-52
2022/09/20 12:21:03;;;;;;;6.43;1.42;;;16.20;99.90;;;;;;5048949;28;20279;-52
2022/09/20 12:24:09;;;;;;;4.65;2.08;;;16.00;99.90;;;;;;5049340;28;20289;-52
2022/09/20 12:26:44;;;;;;;6.35;1.70;;;15.60;99.90;;;;;;5049673;28;20288;-52
2022/09/20 12:29:53;;;;;;;5.45;1.40;;;15.20;99.90;;;;;;5049325;28;20229;-52
2022/09/20 12:32:57;;;;;;;4.97;1.50;;;14.90;99.90;;;;;;5048754;28;20850;-51
2022/09/20 12:36:14;;;;;;;6.23;1.67;;;14.60;99.90;;;;;;5048918;28;20247;-51
2022/09/20 12:39:05;;;;;;;4.10;1.50;;;14.50;99.90;;;;;;5048498;28;20341;-52
2022/09/20 12:41:49;;;;;;;7.00;2.00;;;14.50;99.90;;;;;;5042879;28;20233;-52
2022/09/20 12:44:28;;;;;;;6.60;1.90;;;14.50;99.90;;;;;;5049208;28;20293;-51
2022/09/20 12:47:00;;;;;;;4.57;1.50;;;14.30;99.90;;;;;;5048682;28;20236;-52
2022/09/20 12:55:39;;;;;;;299.97;58.03;;;14.10;99.90;;;;;;5014153;28;20210;-52
2022/09/20 12:58:23;;;;;;;14.67;13.23;;;14.10;99.90;;;;;;5041500;28;20248;-52
2022/09/20 13:01:29;;;;;;;8.50;3.07;;;14.00;99.90;;;;;;5046318;28;20259;-52
2022/09/20 13:04:31;;;;;;;6.30;3.40;;;14.30;99.90;;;;;;5048356;28;20221;-52
2022/09/20 13:07:39;;;;;;;6.17;3.93;;;14.40;99.90;;;;;;5043162;28;20205;-52
2022/09/20 13:10:22;;;;;;;10.13;9.13;;;14.60;99.90;;;;;;5039973;28;20265;-52
2022/09/20 13:12:54;;;;;;;8.73;7.70;;;14.80;99.90;;;;;;5040328;28;20666;-52
2022/09/20 13:15:23;;;;;;;21.17;19.03;;;14.90;99.90;;;;;;5048225;28;20306;-52
2022/09/20 13:17:54;;;;;;;23.80;22.03;;;14.90;99.90;;;;;;5048147;28;20232;-52
2022/09/20 13:20:26;;;;;;;11.13;10.20;;;15.00;99.90;;;;;;5047229;28;20312;-51
2022/09/20 13:22:56;;;;;;;19.53;17.70;;;15.10;99.90;;;;;;5036074;28;20225;-51
2022/09/20 13:25:28;;;;;;;8.37;7.67;;;15.20;99.90;;;;;;5047724;28;20202;-51
2022/09/20 13:28:05;;;;;;;14.98;13.73;;;15.30;99.90;;;;;;5048314;28;20210;-51
2022/09/20 13:30:35;;;;;;;17.35;15.63;;;15.40;99.90;;;;;;5047262;28;20221;-52
2022/09/20 13:33:21;;;;;;;14.43;13.13;;;15.50;99.90;;;;;;5049172;28;20201;-51
2022/09/20 13:35:53;;;;;;;12.95;11.88;;;15.60;99.90;;;;;;5050527;28;20233;-52
2022/09/20 13:38:24;;;;;;;25.57;22.93;;;15.50;99.90;;;;;;5049792;28;20210;-52
2022/09/20 13:40:58;;;;;;;8.00;7.50;;;15.30;99.90;;;;;;5035130;28;20230;-52
2022/09/20 13:43:29;;;;;;;12.30;11.33;;;15.10;99.90;;;;;;5048066;28;20284;-51
2022/09/20 13:46:00;;;;;;;13.03;10.70;;;15.10;99.90;;;;;;5051911;28;20209;-52
2022/09/20 13:48:29;;;;;;;14.23;12.77;;;15.00;99.90;;;;;;5048856;28;20213;-52
2022/09/20 13:50:58;;;;;;;10.37;9.43;;;15.00;99.90;;;;;;5050666;28;20209;-51
2022/09/20 13:53:29;;;;;;;18.47;16.57;;;15.10;99.90;;;;;;5050222;28;20206;-51
2022/09/20 13:56:11;;;;;;;9.60;4.27;;;15.10;99.90;;;;;;5044363;28;20213;-52
2022/09/20 13:58:39;;;;;;;17.93;16.37;;;15.10;99.90;;;;;;5050895;28;20231;-52
2022/09/20 14:01:22;;;;;;;20.60;18.57;;;15.10;99.90;;;;;;5050757;28;20586;-51
2022/09/20 14:03:51;;;;;;;5.80;3.93;;;15.10;99.90;;;;;;5047391;28;20235;-52
2022/09/20 14:06:25;;;;;;;12.77;7.70;;;15.10;99.90;;;;;;5050603;28;20293;-52
2022/09/20 14:08:54;;;;;;;11.37;10.17;;;15.10;99.90;;;;;;5050863;28;20279;-52